Jsp Bora — V2CQ4 — position and weather

sailwx.info

Track history (hours):
 
Tides and Currents Weather Stations Pressure Air Temp Water Temp Dewpoint Dewpoint Depression Visibility Wind Speed Wind Dir Waves Ship Positions

Jsp Bora

Last reported at 2017-Mar-21 18:30 UTC. Time now 2017-Mar-23 16:31 UTC.
Position N 38°60' E 000°19'.

Length 148 m; draft 8.6 m.

Type: Ship. MMSI: 305079000.

Date/timePositionNaut miles runAvg speedWind from/ knotsBaromVisibWave heightAir tempDewpointWater temp
2017-Mar-21 18:30N 38°60' E 000°19'34 9.8
2017-Mar-21 15:04N 39°23' W 000°13'5 9.6
2017-Mar-21 14:33N 39°26' W 000°18'1 1.2
2017-Mar-21 13:31N 39°26' W 000°19'0 0.0
2017-Mar-21 12:31N 39°26' W 000°19'0 0.0
2017-Mar-21 09:21N 39°26' W 000°19'0 0.0
2017-Mar-21 07:08N 39°26' W 000°19'0 0.0
2017-Mar-21 06:32N 39°26' W 000°19'0 0.0
2017-Mar-21 05:32N 39°26' W 000°19'0 0.0
2017-Mar-21 04:20N 39°26' W 000°19'0 0.0
2017-Mar-21 03:32N 39°26' W 000°19'0 0.0
2017-Mar-21 02:20N 39°26' W 000°19'0 0.0
2017-Mar-21 01:20N 39°26' W 000°19'0 0.0
2017-Mar-21 00:32N 39°26' W 000°19'0 0.3
2017-Mar-20 23:33N 39°26' W 000°19'0 0.0
2017-Mar-20 22:34N 39°26' W 000°19'0 0.0
2017-Mar-20 21:34N 39°26' W 000°19'0 0.0
2017-Mar-20 20:33N 39°26' W 000°19'0 0.0
2017-Mar-20 19:30N 39°26' W 000°19'0 0.0
2017-Mar-20 18:33N 39°26' W 000°19'0 0.0
2017-Mar-20 17:27N 39°26' W 000°19'0 0.0
2017-Mar-20 16:34N 39°26' W 000°19'0 0.0
2017-Mar-20 14:30N 39°26' W 000°19'0 0.0
2017-Mar-20 13:30N 39°26' W 000°19'0 0.0
2017-Mar-20 12:34N 39°26' W 000°19'0 0.0
2017-Mar-20 11:34N 39°26' W 000°19'0 0.0
2017-Mar-20 10:28N 39°26' W 000°19'0 0.0
2017-Mar-20 09:33N 39°26' W 000°19'0 0.0
2017-Mar-20 08:28N 39°26' W 000°19'0 0.0
2017-Mar-20 07:34N 39°26' W 000°19'0 0.0
2017-Mar-20 06:33N 39°26' W 000°19'0 0.0
2017-Mar-20 05:34N 39°26' W 000°19'0 0.0
2017-Mar-20 04:30N 39°26' W 000°19'0 0.0
2017-Mar-20 03:34N 39°26' W 000°19'0 0.0
2017-Mar-20 02:30N 39°26' W 000°19'0 0.0
2017-Mar-20 01:34N 39°26' W 000°19'0 0.0
2017-Mar-20 00:30N 39°26' W 000°19'0 0.0
2017-Mar-19 23:34N 39°26' W 000°19'0 0.0
2017-Mar-19 22:30N 39°26' W 000°19'0 0.0
2017-Mar-19 21:30N 39°26' W 000°19'0 0.0
2017-Mar-19 20:34N 39°26' W 000°19'0 0.0
2017-Mar-19 19:34N 39°26' W 000°19'0 0.0
2017-Mar-19 18:33N 39°26' W 000°19'3 3.3
2017-Mar-19 17:32N 39°23' W 000°17'0 0.0
2017-Mar-19 15:04N 39°23' W 000°17'0 0.0
2017-Mar-19 08:32N 39°23' W 000°17'0 0.1
2017-Mar-19 07:20N 39°24' W 000°17'57 9.4
2017-Mar-19 01:17N 38°45' E 000°37'810.5
2017-Mar-19 00:32N 38°39' E 000°44'1110.7
2017-Mar-18 23:33N 38°32' E 000°54'1010.3
2017-Mar-18 22:33N 38°25' E 001°04'1010.3
2017-Mar-18 21:33N 38°18' E 001°13'1010.4
2017-Mar-18 20:33N 38°10' E 001°22'1110.7
2017-Mar-18 19:33N 38°03' E 001°32'1110.5
2017-Mar-18 18:31N 37°55' E 001°42'1010.6
2017-Mar-18 17:33N 37°48' E 001°51'1010.4
2017-Mar-18 16:33N 37°41' E 002°00'1110.6
2017-Mar-18 15:32N 37°33' E 002°10'1210.7
2017-Mar-18 14:23N 37°25' E 002°21'910.8
2017-Mar-18 13:32N 37°18' E 002°29'1210.7
2017-Mar-18 12:24N 37°10' E 002°40'910.7
2017-Mar-18 11:32N 37°04' E 002°49'  
2017-Mar-13 07:33N 39°26' W 000°19'0 0.3
2017-Mar-13 06:24N 39°26' W 000°19'0 0.0
2017-Mar-13 05:30N 39°26' W 000°19'0 0.0
2017-Mar-13 04:30N 39°26' W 000°19'0 0.0
2017-Mar-13 03:30N 39°26' W 000°19'0 0.0
2017-Mar-13 02:33N 39°26' W 000°19'0 0.0
2017-Mar-13 01:33N 39°26' W 000°19'0 0.0
2017-Mar-13 00:33N 39°26' W 000°19'0 0.0
2017-Mar-12 23:30N 39°26' W 000°19'0 0.0
2017-Mar-12 22:30N 39°26' W 000°19'0 0.0
2017-Mar-12 21:27N 39°26' W 000°19'0 0.0
2017-Mar-12 20:33N 39°26' W 000°19'0 0.0
2017-Mar-12 19:30N 39°26' W 000°19'0 0.0
2017-Mar-12 18:29N 39°26' W 000°19'0 0.0
2017-Mar-12 16:23N 39°26' W 000°19'0 0.0
2017-Mar-12 15:32N 39°26' W 000°19'0 0.0
2017-Mar-12 14:32N 39°26' W 000°19'0 0.0
2017-Mar-12 13:33N 39°26' W 000°19'1 0.6
2017-Mar-12 12:33N 39°26' W 000°19'0 0.0
2017-Mar-12 11:33N 39°26' W 000°19'0 0.0
2017-Mar-12 10:33N 39°26' W 000°19'0 0.0
2017-Mar-12 09:33N 39°26' W 000°19'0 0.0
2017-Mar-12 08:33N 39°26' W 000°19'0 0.0
2017-Mar-12 07:33N 39°26' W 000°19'0 0.0
2017-Mar-12 06:33N 39°26' W 000°19'0 0.0
2017-Mar-12 05:33N 39°26' W 000°19'0 0.0
2017-Mar-12 04:32N 39°26' W 000°19'0 0.0
2017-Mar-12 03:33N 39°26' W 000°19'0 0.0
2017-Mar-12 02:33N 39°26' W 000°19'3 2.3
2017-Mar-12 01:04N 39°23' W 000°17'0 0.1
2017-Mar-12 00:31N 39°23' W 000°17'0 0.1
2017-Mar-11 23:31N 39°23' W 000°17'0 0.0
2017-Mar-11 22:25N 39°23' W 000°17'0 0.2
2017-Mar-11 21:31N 39°23' W 000°17'0 0.1
2017-Mar-11 20:31N 39°23' W 000°17'0 0.0
2017-Mar-11 19:07N 39°23' W 000°17'  
Track history (hours):
 
Tides and Currents Weather Stations Pressure Air Temp Water Temp Dewpoint Dewpoint Depression Visibility Wind Speed Wind Dir Waves Ship Positions

Jsp Bora

Last reported at 2017-Mar-21 18:30 UTC. Time now 2017-Mar-23 16:31 UTC.
Position N 38°60' E 000°19'.

Length 148 m; draft 8.6 m.

Type: Ship. MMSI: 305079000.

Date/timePositionNaut miles runAvg speedWind from/ knotsBaromVisibWave heightAir tempDewpointWater temp
2017-Mar-21 18:30N 38°60' E 000°19'34 9.8
2017-Mar-21 15:04N 39°23' W 000°13'5 9.6
2017-Mar-21 14:33N 39°26' W 000°18'1 1.2
2017-Mar-21 13:31N 39°26' W 000°19'0 0.0
2017-Mar-21 12:31N 39°26' W 000°19'0 0.0
2017-Mar-21 09:21N 39°26' W 000°19'0 0.0
2017-Mar-21 07:08N 39°26' W 000°19'0 0.0
2017-Mar-21 06:32N 39°26' W 000°19'0 0.0
2017-Mar-21 05:32N 39°26' W 000°19'0 0.0
2017-Mar-21 04:20N 39°26' W 000°19'0 0.0
2017-Mar-21 03:32N 39°26' W 000°19'0 0.0
2017-Mar-21 02:20N 39°26' W 000°19'0 0.0
2017-Mar-21 01:20N 39°26' W 000°19'0 0.0
2017-Mar-21 00:32N 39°26' W 000°19'0 0.3
2017-Mar-20 23:33N 39°26' W 000°19'0 0.0
2017-Mar-20 22:34N 39°26' W 000°19'0 0.0
2017-Mar-20 21:34N 39°26' W 000°19'0 0.0
2017-Mar-20 20:33N 39°26' W 000°19'0 0.0
2017-Mar-20 19:30N 39°26' W 000°19'0 0.0
2017-Mar-20 18:33N 39°26' W 000°19'0 0.0
2017-Mar-20 17:27N 39°26' W 000°19'0 0.0
2017-Mar-20 16:34N 39°26' W 000°19'0 0.0
2017-Mar-20 14:30N 39°26' W 000°19'0 0.0
2017-Mar-20 13:30N 39°26' W 000°19'0 0.0
2017-Mar-20 12:34N 39°26' W 000°19'0 0.0
2017-Mar-20 11:34N 39°26' W 000°19'0 0.0
2017-Mar-20 10:28N 39°26' W 000°19'0 0.0
2017-Mar-20 09:33N 39°26' W 000°19'0 0.0
2017-Mar-20 08:28N 39°26' W 000°19'0 0.0
2017-Mar-20 07:34N 39°26' W 000°19'0 0.0
2017-Mar-20 06:33N 39°26' W 000°19'0 0.0
2017-Mar-20 05:34N 39°26' W 000°19'0 0.0
2017-Mar-20 04:30N 39°26' W 000°19'0 0.0
2017-Mar-20 03:34N 39°26' W 000°19'0 0.0
2017-Mar-20 02:30N 39°26' W 000°19'0 0.0
2017-Mar-20 01:34N 39°26' W 000°19'0 0.0
2017-Mar-20 00:30N 39°26' W 000°19'0 0.0
2017-Mar-19 23:34N 39°26' W 000°19'0 0.0
2017-Mar-19 22:30N 39°26' W 000°19'0 0.0
2017-Mar-19 21:30N 39°26' W 000°19'0 0.0
2017-Mar-19 20:34N 39°26' W 000°19'0 0.0
2017-Mar-19 19:34N 39°26' W 000°19'0 0.0
2017-Mar-19 18:33N 39°26' W 000°19'3 3.3
2017-Mar-19 17:32N 39°23' W 000°17'0 0.0
2017-Mar-19 15:04N 39°23' W 000°17'0 0.0
2017-Mar-19 08:32N 39°23' W 000°17'0 0.1
2017-Mar-19 07:20N 39°24' W 000°17'57 9.4
2017-Mar-19 01:17N 38°45' E 000°37'810.5
2017-Mar-19 00:32N 38°39' E 000°44'1110.7
2017-Mar-18 23:33N 38°32' E 000°54'1010.3
2017-Mar-18 22:33N 38°25' E 001°04'1010.3
2017-Mar-18 21:33N 38°18' E 001°13'1010.4
2017-Mar-18 20:33N 38°10' E 001°22'1110.7
2017-Mar-18 19:33N 38°03' E 001°32'1110.5
2017-Mar-18 18:31N 37°55' E 001°42'1010.6
2017-Mar-18 17:33N 37°48' E 001°51'1010.4
2017-Mar-18 16:33N 37°41' E 002°00'1110.6
2017-Mar-18 15:32N 37°33' E 002°10'1210.7
2017-Mar-18 14:23N 37°25' E 002°21'910.8
2017-Mar-18 13:32N 37°18' E 002°29'1210.7
2017-Mar-18 12:24N 37°10' E 002°40'910.7
2017-Mar-18 11:32N 37°04' E 002°49'  
2017-Mar-13 07:33N 39°26' W 000°19'0 0.3
2017-Mar-13 06:24N 39°26' W 000°19'0 0.0
2017-Mar-13 05:30N 39°26' W 000°19'0 0.0
2017-Mar-13 04:30N 39°26' W 000°19'0 0.0
2017-Mar-13 03:30N 39°26' W 000°19'0 0.0
2017-Mar-13 02:33N 39°26' W 000°19'0 0.0
2017-Mar-13 01:33N 39°26' W 000°19'0 0.0
2017-Mar-13 00:33N 39°26' W 000°19'0 0.0
2017-Mar-12 23:30N 39°26' W 000°19'0 0.0
2017-Mar-12 22:30N 39°26' W 000°19'0 0.0
2017-Mar-12 21:27N 39°26' W 000°19'0 0.0
2017-Mar-12 20:33N 39°26' W 000°19'0 0.0
2017-Mar-12 19:30N 39°26' W 000°19'0 0.0
2017-Mar-12 18:29N 39°26' W 000°19'0 0.0
2017-Mar-12 16:23N 39°26' W 000°19'0 0.0
2017-Mar-12 15:32N 39°26' W 000°19'0 0.0
2017-Mar-12 14:32N 39°26' W 000°19'0 0.0
2017-Mar-12 13:33N 39°26' W 000°19'1 0.6
2017-Mar-12 12:33N 39°26' W 000°19'0 0.0
2017-Mar-12 11:33N 39°26' W 000°19'0 0.0
2017-Mar-12 10:33N 39°26' W 000°19'0 0.0
2017-Mar-12 09:33N 39°26' W 000°19'0 0.0
2017-Mar-12 08:33N 39°26' W 000°19'0 0.0
2017-Mar-12 07:33N 39°26' W 000°19'0 0.0
2017-Mar-12 06:33N 39°26' W 000°19'0 0.0
2017-Mar-12 05:33N 39°26' W 000°19'0 0.0
2017-Mar-12 04:32N 39°26' W 000°19'0 0.0
2017-Mar-12 03:33N 39°26' W 000°19'0 0.0
2017-Mar-12 02:33N 39°26' W 000°19'3 2.3
2017-Mar-12 01:04N 39°23' W 000°17'0 0.1
2017-Mar-12 00:31N 39°23' W 000°17'0 0.1
2017-Mar-11 23:31N 39°23' W 000°17'0 0.0
2017-Mar-11 22:25N 39°23' W 000°17'0 0.2
2017-Mar-11 21:31N 39°23' W 000°17'0 0.1
2017-Mar-11 20:31N 39°23' W 000°17'0 0.0
2017-Mar-11 19:07N 39°23' W 000°17'  

Dump ship's entire track history